Clemons, Iowa
Current Conditions -  °F | °C
As of 9:12 PM on Monday 22 Dec 2014 (Local Time) from KMIW Reporting Station
Light Rain Light Rain  
Wind Chill: -2°   Ceiling: 200
Heat Index:   Visibility: 3mi
Dew Point:   Wind: 9mph
Humidity: 100%   Direction: 90°E
Pressure: 29.47"   Gusts: NA
Location:  42.11°N, 93.16°W
Report Text: KMIW 230312Z AUTO 09008KT 3SM -RA BR OVC002 02/02 A2947 RMK AO2 P0003 T00170017
Loading
Personal Weather Stations






























Interactive Weather Map New forecast layout! Learn more

10-Day Weather Forecast

Advertisements
Track Severe Weather on mobile